sensor_id;sensor_type;location;lat;lon;timestamp;pressure;altitude;pressure_sealevel;temperature;humidity
54592;BME280;40488;48.558;18.150;2024-03-17T00:01:42;99831.97;;;10.22;93.47
54592;BME280;40488;48.558;18.150;2024-03-17T00:04:08;99851.56;;;10.32;93.31
54592;BME280;40488;48.558;18.150;2024-03-17T00:06:36;99852.44;;;10.34;93.73
54592;BME280;40488;48.558;18.150;2024-03-17T00:09:04;99856.69;;;10.35;93.41
54592;BME280;40488;48.558;18.150;2024-03-17T00:11:36;99866.06;;;10.36;93.76
54592;BME280;40488;48.558;18.150;2024-03-17T00:14:02;99871.16;;;10.39;93.34
54592;BME280;40488;48.558;18.150;2024-03-17T00:16:31;99873.69;;;10.39;93.64
54592;BME280;40488;48.558;18.150;2024-03-17T00:18:58;99872.03;;;10.43;93.69
54592;BME280;40488;48.558;18.150;2024-03-17T00:21:25;99880.53;;;10.45;93.47
54592;BME280;40488;48.558;18.150;2024-03-17T00:23:52;99880.53;;;10.45;93.28
54592;BME280;40488;48.558;18.150;2024-03-17T00:26:22;99889.88;;;10.44;93.50
54592;BME280;40488;48.558;18.150;2024-03-17T00:28:48;99886.50;;;10.45;93.03
54592;BME280;40488;48.558;18.150;2024-03-17T00:31:17;99883.06;;;10.40;93.25
54592;BME280;40488;48.558;18.150;2024-03-17T00:33:44;99891.59;;;10.42;92.95
54592;BME280;40488;48.558;18.150;2024-03-17T00:36:12;99890.75;;;10.43;92.47
54592;BME280;40488;48.558;18.150;2024-03-17T00:38:41;99898.38;;;10.40;92.14
54592;BME280;40488;48.558;18.150;2024-03-17T00:41:07;99899.25;;;10.41;91.62
54592;BME280;40488;48.558;18.150;2024-03-17T00:43:36;99889.91;;;10.41;91.57
54592;BME280;40488;48.558;18.150;2024-03-17T00:46:03;99893.28;;;10.42;90.94
54592;BME280;40488;48.558;18.150;2024-03-17T00:48:31;99902.63;;;10.38;90.16
54592;BME280;40488;48.558;18.150;2024-03-17T00:50:58;99909.44;;;10.38;89.87
54592;BME280;40488;48.558;18.150;2024-03-17T00:53:26;99917.06;;;10.35;89.77
54592;BME280;40488;48.558;18.150;2024-03-17T00:55:53;99922.16;;;10.30;88.90
54592;BME280;40488;48.558;18.150;2024-03-17T00:58:20;99918.75;;;10.28;88.99
54592;BME280;40488;48.558;18.150;2024-03-17T01:00:49;99909.38;;;10.23;88.32
54592;BME280;40488;48.558;18.150;2024-03-17T01:03:17;99912.75;;;10.17;87.64
54592;BME280;40488;48.558;18.150;2024-03-17T01:05:44;99896.47;;;10.03;86.75
54592;BME280;40488;48.558;18.150;2024-03-17T01:08:14;99916.13;;;10.13;86.61
54592;BME280;40488;48.558;18.150;2024-03-17T01:10:41;99915.22;;;10.11;86.07
54592;BME280;40488;48.558;18.150;2024-03-17T01:13:10;99911.81;;;10.09;85.80
54592;BME280;40488;48.558;18.150;2024-03-17T01:15:38;99906.69;;;10.06;85.62
54592;BME280;40488;48.558;18.150;2024-03-17T01:18:07;99905.84;;;10.04;85.57
54592;BME280;40488;48.558;18.150;2024-03-17T01:20:36;99872.63;;;9.87;85.01
54592;BME280;40488;48.558;18.150;2024-03-17T01:23:04;99893.06;;;10.01;85.11
54592;BME280;40488;48.558;18.150;2024-03-17T01:25:33;99896.50;;;10.00;84.02
54592;BME280;40488;48.558;18.150;2024-03-17T01:28:03;99886.25;;;9.98;84.27
54592;BME280;40488;48.558;18.150;2024-03-17T01:30:31;99893.09;;;9.98;83.35
54592;BME280;40488;48.558;18.150;2024-03-17T01:32:59;99881.16;;;9.91;83.59
54592;BME280;40488;48.558;18.150;2024-03-17T01:35:28;99872.63;;;9.87;83.25
54592;BME280;40488;48.558;18.150;2024-03-17T01:37:55;99895.53;;;9.84;82.61
54592;BME280;40488;48.558;18.150;2024-03-17T01:40:22;99896.38;;;9.82;82.42
54592;BME280;40488;48.558;18.150;2024-03-17T01:42:49;99894.66;;;9.78;82.60
54592;BME280;40488;48.558;18.150;2024-03-17T01:45:35;99906.53;;;9.74;81.78
54592;BME280;40488;48.558;18.150;2024-03-17T01:48:03;99915.03;;;9.75;81.73
54592;BME280;40488;48.558;18.150;2024-03-17T01:50:35;99916.69;;;9.70;81.74
54592;BME280;40488;48.558;18.150;2024-03-17T01:53:03;99920.97;;;9.69;82.20
54592;BME280;40488;48.558;18.150;2024-03-17T01:55:32;99911.50;;;9.55;81.80
54592;BME280;40488;48.558;18.150;2024-03-17T01:58:00;99908.06;;;9.50;81.54
54592;BME280;40488;48.558;18.150;2024-03-17T02:00:29;99931.91;;;9.55;81.68
54592;BME280;40488;48.558;18.150;2024-03-17T02:02:57;99940.34;;;9.51;81.98
54592;BME280;40488;48.558;18.150;2024-03-17T02:05:25;99940.38;;;9.54;81.58
54592;BME280;40488;48.558;18.150;2024-03-17T02:07:54;99935.28;;;9.54;81.89
54592;BME280;40488;48.558;18.150;2024-03-17T02:10:22;99936.09;;;9.51;81.25
54592;BME280;40488;48.558;18.150;2024-03-17T02:12:49;99942.00;;;9.45;81.66
54592;BME280;40488;48.558;18.150;2024-03-17T02:15:17;99943.69;;;9.40;82.12
54592;BME280;40488;48.558;18.150;2024-03-17T02:17:44;99942.72;;;9.31;81.73
54592;BME280;40488;48.558;18.150;2024-03-17T02:20:12;99947.88;;;9.37;81.57
54592;BME280;40488;48.558;18.150;2024-03-17T02:22:41;99950.41;;;9.35;81.81
54592;BME280;40488;48.558;18.150;2024-03-17T02:25:09;99957.16;;;9.32;82.10
54592;BME280;40488;48.558;18.150;2024-03-17T02:27:36;99921.41;;;9.21;81.47
54592;BME280;40488;48.558;18.150;2024-03-17T02:30:05;99946.13;;;9.30;81.50
54592;BME280;40488;48.558;18.150;2024-03-17T02:32:35;99938.38;;;9.16;81.13
54592;BME280;40488;48.558;18.150;2024-03-17T02:35:03;99947.72;;;9.19;80.92
54592;BME280;40488;48.558;18.150;2024-03-17T02:37:31;99950.22;;;9.11;81.36
54592;BME280;40488;48.558;18.150;2024-03-17T02:40:01;99948.31;;;8.95;81.33
54592;BME280;40488;48.558;18.150;2024-03-17T02:42:27;99955.88;;;8.86;81.68
54592;BME280;40488;48.558;18.150;2024-03-17T02:44:55;99956.59;;;8.76;81.70
54592;BME280;40488;48.558;18.150;2024-03-17T02:47:23;99956.59;;;8.73;82.20
54592;BME280;40488;48.558;18.150;2024-03-17T02:49:51;99948.91;;;8.70;81.38
54592;BME280;40488;48.558;18.150;2024-03-17T02:52:19;99948.06;;;8.68;81.04
54592;BME280;40488;48.558;18.150;2024-03-17T02:54:47;99944.59;;;8.63;80.58
54592;BME280;40488;48.558;18.150;2024-03-17T02:57:16;99931.78;;;8.55;80.75
54592;BME280;40488;48.558;18.150;2024-03-17T02:59:44;99943.66;;;8.53;79.11
54592;BME280;40488;48.558;18.150;2024-03-17T03:02:12;99943.56;;;8.47;79.42
54592;BME280;40488;48.558;18.150;2024-03-17T03:04:40;99946.06;;;8.43;78.80
54592;BME280;40488;48.558;18.150;2024-03-17T03:07:08;99944.38;;;8.42;78.41
54592;BME280;40488;48.558;18.150;2024-03-17T03:09:35;99951.13;;;8.43;78.33
54592;BME280;40488;48.558;18.150;2024-03-17T03:12:03;99952.81;;;8.41;78.09
54592;BME280;40488;48.558;18.150;2024-03-17T03:14:34;99953.63;;;8.37;77.24
54592;BME280;40488;48.558;18.150;2024-03-17T03:17:03;99951.00;;;8.31;76.97
54592;BME280;40488;48.558;18.150;2024-03-17T03:19:30;99957.66;;;8.26;76.86
54592;BME280;40488;48.558;18.150;2024-03-17T03:21:58;99960.97;;;8.19;76.51
54592;BME280;40488;48.558;18.150;2024-03-17T03:24:26;99974.47;;;8.15;76.58
54592;BME280;40488;48.558;18.150;2024-03-17T03:26:54;99976.91;;;8.07;76.49
54592;BME280;40488;48.558;18.150;2024-03-17T03:29:22;99979.31;;;7.96;75.92
54592;BME280;40488;48.558;18.150;2024-03-17T03:31:51;99979.31;;;7.96;76.92
54592;BME280;40488;48.558;18.150;2024-03-17T03:34:19;99943.34;;;7.69;76.68
54592;BME280;40488;48.558;18.150;2024-03-17T03:36:46;99987.56;;;7.82;76.84
54592;BME280;40488;48.558;18.150;2024-03-17T03:39:14;99992.59;;;7.77;76.30
54592;BME280;40488;48.558;18.150;2024-03-17T03:41:42;99996.81;;;7.80;76.64
54592;BME280;40488;48.558;18.150;2024-03-17T03:44:10;100001.94;;;7.81;76.39
54592;BME280;40488;48.558;18.150;2024-03-17T03:46:38;100001.09;;;7.82;76.07
54592;BME280;40488;48.558;18.150;2024-03-17T03:49:07;100003.63;;;7.81;76.52
54592;BME280;40488;48.558;18.150;2024-03-17T03:51:35;100012.94;;;7.80;76.17
54592;BME280;40488;48.558;18.150;2024-03-17T03:54:03;100011.94;;;7.71;76.70
54592;BME280;40488;48.558;18.150;2024-03-17T03:56:32;100016.22;;;7.73;76.79
54592;BME280;40488;48.558;18.150;2024-03-17T03:58:59;100005.13;;;7.68;76.86
54592;BME280;40488;48.558;18.150;2024-03-17T04:01:28;100023.88;;;7.76;77.48
54592;BME280;40488;48.558;18.150;2024-03-17T04:03:55;100021.28;;;7.73;77.25
54592;BME280;40488;48.558;18.150;2024-03-17T04:06:25;100021.28;;;7.73;76.40
54592;BME280;40488;48.558;18.150;2024-03-17T04:08:52;100025.50;;;7.73;76.73
54592;BME280;40488;48.558;18.150;2024-03-17T04:11:20;100017.13;;;7.77;76.14
54592;BME280;40488;48.558;18.150;2024-03-17T04:13:48;100017.88;;;7.71;76.58
54592;BME280;40488;48.558;18.150;2024-03-17T04:16:16;100016.06;;;7.63;76.49
54592;BME280;40488;48.558;18.150;2024-03-17T04:18:43;100021.09;;;7.61;76.87
54592;BME280;40488;48.558;18.150;2024-03-17T04:21:11;100017.72;;;7.62;77.35
54592;BME280;40488;48.558;18.150;2024-03-17T04:23:41;100010.84;;;7.55;77.07
54592;BME280;40488;48.558;18.150;2024-03-17T04:26:09;100024.34;;;7.54;77.34
54592;BME280;40488;48.558;18.150;2024-03-17T04:28:37;100022.69;;;7.56;77.33
54592;BME280;40488;48.558;18.150;2024-03-17T04:31:04;100009.03;;;7.48;77.09
54592;BME280;40488;48.558;18.150;2024-03-17T04:33:32;100024.31;;;7.51;76.56
54592;BME280;40488;48.558;18.150;2024-03-17T04:36:01;100029.28;;;7.45;76.64
54592;BME280;40488;48.558;18.150;2024-03-17T04:38:29;100018.97;;;7.36;76.99
54592;BME280;40488;48.558;18.150;2024-03-17T04:40:59;100032.56;;;7.38;76.74
54592;BME280;40488;48.558;18.150;2024-03-17T04:43:32;100035.88;;;7.34;76.67
54592;BME280;40488;48.558;18.150;2024-03-17T04:46:00;100034.97;;;7.32;76.42
54592;BME280;40488;48.558;18.150;2024-03-17T04:48:30;100029.78;;;7.26;76.62
54592;BME280;40488;48.558;18.150;2024-03-17T04:50:58;100039.06;;;7.24;75.81
54592;BME280;40488;48.558;18.150;2024-03-17T04:53:26;100045.00;;;7.24;76.19
54592;BME280;40488;48.558;18.150;2024-03-17T04:56:01;100023.69;;;7.16;75.83
54592;BME280;40488;48.558;18.150;2024-03-17T04:58:31;100042.56;;;7.29;76.44
54592;BME280;40488;48.558;18.150;2024-03-17T05:01:04;100043.34;;;7.26;75.56
54592;BME280;40488;48.558;18.150;2024-03-17T05:03:32;100044.16;;;7.24;75.71
54592;BME280;40488;48.558;18.150;2024-03-17T05:06:01;100055.09;;;7.21;76.15
54592;BME280;40488;48.558;18.150;2024-03-17T05:08:29;100061.03;;;7.22;76.22
54592;BME280;40488;48.558;18.150;2024-03-17T05:10:58;100062.66;;;7.20;75.85
54592;BME280;40488;48.558;18.150;2024-03-17T05:13:27;100060.97;;;7.19;75.90
54592;BME280;40488;48.558;18.150;2024-03-17T05:15:55;100062.66;;;7.20;75.60
54592;BME280;40488;48.558;18.150;2024-03-17T05:18:23;100072.81;;;7.20;75.16
54592;BME280;40488;48.558;18.150;2024-03-17T05:20:58;100060.00;;;7.12;75.62
54592;BME280;40488;48.558;18.150;2024-03-17T05:23:27;100048.88;;;7.06;75.96
54592;BME280;40488;48.558;18.150;2024-03-17T05:25:55;100071.19;;;7.22;75.74
54592;BME280;40488;48.558;18.150;2024-03-17T05:28:24;100067.56;;;7.11;75.08
54592;BME280;40488;48.558;18.150;2024-03-17T05:30:54;100076.19;;;7.17;74.76
54592;BME280;40488;48.558;18.150;2024-03-17T05:33:24;100077.84;;;7.17;75.11
54592;BME280;40488;48.558;18.150;2024-03-17T05:35:54;100076.13;;;7.16;75.27
54592;BME280;40488;48.558;18.150;2024-03-17T05:38:23;100061.69;;;7.12;74.78
54592;BME280;40488;48.558;18.150;2024-03-17T05:40:54;100078.69;;;7.16;75.17
54592;BME280;40488;48.558;18.150;2024-03-17T05:43:23;100076.06;;;7.13;74.62
54592;BME280;40488;48.558;18.150;2024-03-17T05:45:53;100079.56;;;7.18;75.14
54592;BME280;40488;48.558;18.150;2024-03-17T05:48:21;100081.28;;;7.19;74.77
54592;BME280;40488;48.558;18.150;2024-03-17T05:50:50;100067.66;;;7.14;74.43
54592;BME280;40488;48.558;18.150;2024-03-17T05:53:20;100084.00;;;7.29;74.08
54592;BME280;40488;48.558;18.150;2024-03-17T05:55:50;100079.94;;;7.39;74.14
54592;BME280;40488;48.558;18.150;2024-03-17T05:58:18;100075.78;;;7.41;74.20
54592;BME280;40488;48.558;18.150;2024-03-17T06:00:46;100090.47;;;7.57;74.10
54592;BME280;40488;48.558;18.150;2024-03-17T06:03:15;100096.63;;;7.70;72.99
54592;BME280;40488;48.558;18.150;2024-03-17T06:05:44;100098.47;;;7.80;72.81
54592;BME280;40488;48.558;18.150;2024-03-17T06:08:12;100099.50;;;7.91;73.28
54592;BME280;40488;48.558;18.150;2024-03-17T06:10:43;100094.56;;;7.98;71.72
54592;BME280;40488;48.558;18.150;2024-03-17T06:13:12;100102.31;;;8.07;71.94
54592;BME280;40488;48.558;18.150;2024-03-17T06:15:42;100106.69;;;8.15;72.04
54592;BME280;40488;48.558;18.150;2024-03-17T06:18:11;100102.53;;;8.21;71.28
54592;BME280;40488;48.558;18.150;2024-03-17T06:20:42;100110.38;;;8.32;71.20
54592;BME280;40488;48.558;18.150;2024-03-17T06:23:10;100117.31;;;8.43;70.09
54592;BME280;40488;48.558;18.150;2024-03-17T06:25:40;100121.72;;;8.53;70.54
54592;BME280;40488;48.558;18.150;2024-03-17T06:28:08;100119.28;;;8.61;69.54
54592;BME280;40488;48.558;18.150;2024-03-17T06:30:40;100090.38;;;8.56;69.24
54592;BME280;40488;48.558;18.150;2024-03-17T06:33:10;100122.97;;;8.84;69.03
54592;BME280;40488;48.558;18.150;2024-03-17T06:35:38;100119.78;;;9.00;68.90
54592;BME280;40488;48.558;18.150;2024-03-17T06:38:07;100127.53;;;9.08;67.77
54592;BME280;40488;48.558;18.150;2024-03-17T06:40:37;100133.59;;;9.16;68.44
54592;BME280;40488;48.558;18.150;2024-03-17T06:43:05;100137.09;;;9.25;67.38
54592;BME280;40488;48.558;18.150;2024-03-17T06:45:34;100146.56;;;9.38;66.17
54592;BME280;40488;48.558;18.150;2024-03-17T06:48:02;100142.44;;;9.47;66.28
54592;BME280;40488;48.558;18.150;2024-03-17T06:50:30;100146.72;;;9.51;65.09
54592;BME280;40488;48.558;18.150;2024-03-17T06:52:57;100151.06;;;9.61;64.55
54592;BME280;40488;48.558;18.150;2024-03-17T06:55:27;100152.84;;;9.68;63.50
54592;BME280;40488;48.558;18.150;2024-03-17T06:57:54;100157.97;;;9.71;62.52
54592;BME280;40488;48.558;18.150;2024-03-17T07:00:22;100163.03;;;9.68;60.87
54592;BME280;40488;48.558;18.150;2024-03-17T07:02:51;100158.88;;;9.76;61.04
54592;BME280;40488;48.558;18.150;2024-03-17T07:05:19;100161.50;;;9.83;60.61
54592;BME280;40488;48.558;18.150;2024-03-17T07:07:46;100165.78;;;9.86;59.51
54592;BME280;40488;48.558;18.150;2024-03-17T07:10:14;100168.41;;;9.95;59.40
54592;BME280;40488;48.558;18.150;2024-03-17T07:12:47;100159.91;;;9.93;59.05
54592;BME280;40488;48.558;18.150;2024-03-17T07:15:14;100151.41;;;9.94;58.91
54592;BME280;40488;48.558;18.150;2024-03-17T07:17:42;100173.72;;;10.13;57.91
54592;BME280;40488;48.558;18.150;2024-03-17T07:20:10;100173.75;;;10.16;57.79
54592;BME280;40488;48.558;18.150;2024-03-17T07:22:39;100173.78;;;10.22;57.08
54592;BME280;40488;48.558;18.150;2024-03-17T07:25:07;100168.78;;;10.31;56.19
54592;BME280;40488;48.558;18.150;2024-03-17T07:27:35;100165.38;;;10.32;54.45
54592;BME280;40488;48.558;18.150;2024-03-17T07:30:08;100159.44;;;10.33;54.97
54592;BME280;40488;48.558;18.150;2024-03-17T07:32:36;100162.91;;;10.41;55.34
54592;BME280;40488;48.558;18.150;2024-03-17T07:35:04;100159.50;;;10.42;54.32
54592;BME280;40488;48.558;18.150;2024-03-17T07:37:32;100174.81;;;10.44;53.81
54592;BME280;40488;48.558;18.150;2024-03-17T07:40:00;100171.41;;;10.42;53.11
54592;BME280;40488;48.558;18.150;2024-03-17T07:42:33;100177.38;;;10.42;53.12
54592;BME280;40488;48.558;18.150;2024-03-17T07:45:00;100172.34;;;10.54;52.32
54592;BME280;40488;48.558;18.150;2024-03-17T07:47:29;100178.28;;;10.52;52.57
54592;BME280;40488;48.558;18.150;2024-03-17T07:50:02;100172.34;;;10.54;51.79
54592;BME280;40488;48.558;18.150;2024-03-17T07:52:32;100162.19;;;10.63;51.57
54592;BME280;40488;48.558;18.150;2024-03-17T07:54:59;100162.19;;;10.60;52.50
54592;BME280;40488;48.558;18.150;2024-03-17T07:57:28;100164.81;;;10.71;52.74
54592;BME280;40488;48.558;18.150;2024-03-17T07:59:56;100155.47;;;10.74;52.10
54592;BME280;40488;48.558;18.150;2024-03-17T08:02:23;100158.91;;;10.80;52.18
54592;BME280;40488;48.558;18.150;2024-03-17T08:04:53;100159.81;;;10.89;52.58
54592;BME280;40488;48.558;18.150;2024-03-17T08:07:20;100158.19;;;11.00;52.32
54592;BME280;40488;48.558;18.150;2024-03-17T08:09:48;100161.63;;;11.08;52.17
54592;BME280;40488;48.558;18.150;2024-03-17T08:12:16;100159.09;;;11.14;51.44
54592;BME280;40488;48.558;18.150;2024-03-17T08:14:44;100156.53;;;11.13;51.52
54592;BME280;40488;48.558;18.150;2024-03-17T08:17:12;100162.56;;;11.33;51.66
54592;BME280;40488;48.558;18.150;2024-03-17T08:19:40;100157.50;;;11.45;52.33
54592;BME280;40488;48.558;18.150;2024-03-17T08:22:09;100159.22;;;11.52;51.92
54592;BME280;40488;48.558;18.150;2024-03-17T08:24:37;100161.78;;;11.57;51.72
54592;BME280;40488;48.558;18.150;2024-03-17T08:27:04;100161.03;;;11.68;51.95
54592;BME280;40488;48.558;18.150;2024-03-17T08:29:32;100141.44;;;11.75;52.00
54592;BME280;40488;48.558;18.150;2024-03-17T08:32:00;100160.19;;;11.81;51.61
54592;BME280;40488;48.558;18.150;2024-03-17T08:34:28;100161.03;;;11.76;51.25
54592;BME280;40488;48.558;18.150;2024-03-17T08:36:56;100166.16;;;11.77;51.00
54592;BME280;40488;48.558;18.150;2024-03-17T08:39:25;100162.69;;;11.60;50.44
54592;BME280;40488;48.558;18.150;2024-03-17T08:41:53;100153.34;;;11.71;50.71
54592;BME280;40488;48.558;18.150;2024-03-17T08:44:21;100155.88;;;11.65;51.18
54592;BME280;40488;48.558;18.150;2024-03-17T08:46:49;100150.84;;;11.89;51.59
54592;BME280;40488;48.558;18.150;2024-03-17T08:49:17;100151.72;;;12.19;52.08
54592;BME280;40488;48.558;18.150;2024-03-17T08:51:45;100154.28;;;12.43;52.18
54592;BME280;40488;48.558;18.150;2024-03-17T08:54:12;100158.53;;;12.56;52.34
54592;BME280;40488;48.558;18.150;2024-03-17T08:56:41;100150.84;;;12.59;51.80
54592;BME280;40488;48.558;18.150;2024-03-17T08:59:09;100156.78;;;12.62;51.31
54592;BME280;40488;48.558;18.150;2024-03-17T09:01:39;100154.25;;;12.61;50.70
54592;BME280;40488;48.558;18.150;2024-03-17T09:04:07;100155.97;;;12.59;50.16
54592;BME280;40488;48.558;18.150;2024-03-17T09:06:37;100150.84;;;12.62;49.54
54592;BME280;40488;48.558;18.150;2024-03-17T09:09:05;100145.69;;;12.80;50.72
54592;BME280;40488;48.558;18.150;2024-03-17T09:11:33;100147.38;;;12.90;50.78
54592;BME280;40488;48.558;18.150;2024-03-17T09:14:02;100148.19;;;13.09;50.45
54592;BME280;40488;48.558;18.150;2024-03-17T09:16:30;100142.16;;;13.17;49.86
54592;BME280;40488;48.558;18.150;2024-03-17T09:18:58;100139.59;;;13.05;48.04
54592;BME280;40488;48.558;18.150;2024-03-17T09:21:26;100133.66;;;13.08;48.93
54592;BME280;40488;48.558;18.150;2024-03-17T09:23:54;100133.63;;;13.15;47.97
54592;BME280;40488;48.558;18.150;2024-03-17T09:26:21;100148.13;;;13.28;47.71
54592;BME280;40488;48.558;18.150;2024-03-17T09:28:49;100142.06;;;13.41;48.23
54592;BME280;40488;48.558;18.150;2024-03-17T09:31:18;100137.78;;;13.42;46.87
54592;BME280;40488;48.558;18.150;2024-03-17T09:33:46;100136.84;;;13.58;47.22
54592;BME280;40488;48.558;18.150;2024-03-17T09:36:15;100138.59;;;13.58;46.55
54592;BME280;40488;48.558;18.150;2024-03-17T09:38:44;100128.25;;;13.67;46.88
54592;BME280;40488;48.558;18.150;2024-03-17T09:41:20;100139.25;;;13.88;46.38
54592;BME280;40488;48.558;18.150;2024-03-17T09:43:53;100140.19;;;13.77;45.53
54592;BME280;40488;48.558;18.150;2024-03-17T09:46:24;100135.91;;;13.76;45.29
54592;BME280;40488;48.558;18.150;2024-03-17T09:48:53;100138.38;;;13.91;45.40
54592;BME280;40488;48.558;18.150;2024-03-17T09:51:22;100135.78;;;13.89;45.09
54592;BME280;40488;48.558;18.150;2024-03-17T09:53:51;100136.47;;;14.17;46.60
54592;BME280;40488;48.558;18.150;2024-03-17T09:56:20;100135.44;;;14.38;46.88
54592;BME280;40488;48.558;18.150;2024-03-17T09:58:49;100131.06;;;14.47;46.03
54592;BME280;40488;48.558;18.150;2024-03-17T10:01:18;100122.44;;;14.54;46.78
54592;BME280;40488;48.558;18.150;2024-03-17T10:03:48;100122.50;;;14.51;46.05
54592;BME280;40488;48.558;18.150;2024-03-17T10:06:19;100115.75;;;14.41;45.53
54592;BME280;40488;48.558;18.150;2024-03-17T10:08:47;100118.25;;;14.46;45.82
54592;BME280;40488;48.558;18.150;2024-03-17T10:11:16;100124.25;;;14.46;46.45
54592;BME280;40488;48.558;18.150;2024-03-17T10:13:57;100119.97;;;14.45;46.50
54592;BME280;40488;48.558;18.150;2024-03-17T10:16:26;100124.09;;;14.61;47.47
54592;BME280;40488;48.558;18.150;2024-03-17T10:19:08;100069.69;;;14.20;44.89
54592;BME280;40488;48.558;18.150;2024-03-17T10:21:37;100109.53;;;14.62;45.25
54592;BME280;40488;48.558;18.150;2024-03-17T10:24:06;100110.38;;;14.62;44.49
54592;BME280;40488;48.558;18.150;2024-03-17T10:26:41;100119.69;;;14.74;45.17
54592;BME280;40488;48.558;18.150;2024-03-17T10:29:28;100124.78;;;14.80;45.18
54592;BME280;40488;48.558;18.150;2024-03-17T10:31:58;100112.09;;;14.62;44.20
54592;BME280;40488;48.558;18.150;2024-03-17T10:34:31;100125.72;;;14.68;45.48
54592;BME280;40488;48.558;18.150;2024-03-17T10:37:08;100123.69;;;14.98;45.65
54592;BME280;40488;48.558;18.150;2024-03-17T10:39:38;100122.72;;;15.08;45.52
54592;BME280;40488;48.558;18.150;2024-03-17T10:42:07;100127.03;;;15.06;44.80
54592;BME280;40488;48.558;18.150;2024-03-17T10:44:37;100121.91;;;15.06;44.66
54592;BME280;40488;48.558;18.150;2024-03-17T10:47:06;100116.19;;;14.81;43.21
54592;BME280;40488;48.558;18.150;2024-03-17T10:49:38;100105.16;;;14.73;43.55
54592;BME280;40488;48.558;18.150;2024-03-17T10:52:07;100107.28;;;14.27;43.66
54592;BME280;40488;48.558;18.150;2024-03-17T10:54:35;100120.22;;;14.13;44.52
54592;BME280;40488;48.558;18.150;2024-03-17T10:57:18;100126.00;;;14.41;44.50
54592;BME280;40488;48.558;18.150;2024-03-17T10:59:52;100105.28;;;14.61;44.71
54592;BME280;40488;48.558;18.150;2024-03-17T11:02:22;100108.91;;;14.37;44.29
54592;BME280;40488;48.558;18.150;2024-03-17T11:04:59;100097.28;;;13.94;45.35
54592;BME280;40488;48.558;18.150;2024-03-17T11:07:27;100112.53;;;14.12;45.57
54592;BME280;40488;48.558;18.150;2024-03-17T11:09:59;100114.19;;;14.16;45.72
54592;BME280;40488;48.558;18.150;2024-03-17T11:12:48;100114.19;;;14.19;45.24
54592;BME280;40488;48.558;18.150;2024-03-17T11:15:36;100110.75;;;14.20;45.22
54592;BME280;40488;48.558;18.150;2024-03-17T11:21:24;100110.38;;;14.62;45.48
54592;BME280;40488;48.558;18.150;2024-03-17T11:23:56;100100.94;;;14.64;44.66
54592;BME280;40488;48.558;18.150;2024-03-17T11:26:28;100096.50;;;14.78;44.25
54592;BME280;40488;48.558;18.150;2024-03-17T11:28:57;100105.00;;;14.84;44.89
54592;BME280;40488;48.558;18.150;2024-03-17T11:31:34;100103.47;;;14.70;43.89
54592;BME280;40488;48.558;18.150;2024-03-17T11:34:02;100100.09;;;14.62;45.34
54592;BME280;40488;48.558;18.150;2024-03-17T11:36:39;100096.81;;;14.51;44.25
54592;BME280;40488;48.558;18.150;2024-03-17T11:39:08;100101.00;;;14.60;44.34
54592;BME280;40488;48.558;18.150;2024-03-17T11:41:47;100096.50;;;14.78;44.47
54592;BME280;40488;48.558;18.150;2024-03-17T11:44:16;100093.09;;;14.76;43.53
54592;BME280;40488;48.558;18.150;2024-03-17T11:46:45;100090.41;;;14.89;42.67
54592;BME280;40488;48.558;18.150;2024-03-17T11:49:20;100091.38;;;14.80;43.71
54592;BME280;40488;48.558;18.150;2024-03-17T11:51:48;100086.03;;;14.97;43.24
54592;BME280;40488;48.558;18.150;2024-03-17T11:54:19;100081.53;;;15.12;42.35
54592;BME280;40488;48.558;18.150;2024-03-17T11:56:50;100083.38;;;15.04;41.39
54592;BME280;40488;48.558;18.150;2024-03-17T11:59:16;100086.69;;;15.14;41.70
54592;BME280;40488;48.558;18.150;2024-03-17T12:01:45;100083.88;;;15.29;41.34
54592;BME280;40488;48.558;18.150;2024-03-17T12:04:14;100088.16;;;15.30;41.33
54592;BME280;40488;48.558;18.150;2024-03-17T12:06:44;100078.84;;;15.23;40.00
54592;BME280;40488;48.558;18.150;2024-03-17T12:09:18;100059.34;;;15.05;41.50
54592;BME280;40488;48.558;18.150;2024-03-17T12:11:48;100068.63;;;15.17;41.86
54592;BME280;40488;48.558;18.150;2024-03-17T12:14:16;100070.13;;;15.33;41.71
54592;BME280;40488;48.558;18.150;2024-03-17T12:16:50;100056.16;;;15.52;41.50
54592;BME280;40488;48.558;18.150;2024-03-17T12:19:18;100058.03;;;15.38;40.70
54592;BME280;40488;48.558;18.150;2024-03-17T12:21:50;100037.53;;;15.35;40.84
54592;BME280;40488;48.558;18.150;2024-03-17T12:24:20;100064.72;;;15.54;40.90
54592;BME280;40488;48.558;18.150;2024-03-17T12:26:50;100047.41;;;15.62;41.21
54592;BME280;40488;48.558;18.150;2024-03-17T12:29:25;100045.63;;;15.69;41.31
54592;BME280;40488;48.558;18.150;2024-03-17T12:31:57;100045.50;;;15.76;40.08
54592;BME280;40488;48.558;18.150;2024-03-17T12:34:25;100046.28;;;15.80;39.94
54592;BME280;40488;48.558;18.150;2024-03-17T12:36:54;100040.19;;;15.84;39.19
54592;BME280;40488;48.558;18.150;2024-03-17T12:39:24;100041.19;;;15.78;39.64
54592;BME280;40488;48.558;18.150;2024-03-17T12:42:12;100032.06;;;16.08;40.00
54592;BME280;40488;48.558;18.150;2024-03-17T12:44:43;100028.59;;;16.12;40.44
54592;BME280;40488;48.558;18.150;2024-03-17T12:47:16;100018.53;;;15.97;40.61
54592;BME280;40488;48.558;18.150;2024-03-17T12:49:45;100022.78;;;15.99;40.15
54592;BME280;40488;48.558;18.150;2024-03-17T12:52:18;100025.53;;;15.90;40.25
54592;BME280;40488;48.558;18.150;2024-03-17T12:54:58;100018.06;;;15.75;40.08
54592;BME280;40488;48.558;18.150;2024-03-17T12:57:39;100017.19;;;15.75;40.29
54592;BME280;40488;48.558;18.150;2024-03-17T13:00:25;100012.53;;;15.96;40.48
54592;BME280;40488;48.558;18.150;2024-03-17T13:03:00;100008.41;;;15.88;39.31